createdAt,value
2018-12-12T00:01:31.109Z,65.87
2018-12-12T00:04:00.018Z,66.00
2018-12-12T00:06:28.598Z,67.80
2018-12-12T00:08:57.938Z,68.87
2018-12-12T00:11:26.654Z,66.95
2018-12-12T00:13:55.426Z,66.22
2018-12-12T00:16:23.978Z,64.20
2018-12-12T00:18:52.792Z,63.42
2018-12-12T00:21:21.426Z,62.60
2018-12-12T00:23:49.935Z,63.78
2018-12-12T00:26:18.687Z,61.50
2018-12-12T00:28:47.279Z,61.98
2018-12-12T00:31:15.869Z,60.20
2018-12-12T00:33:44.379Z,63.48
2018-12-12T00:36:12.874Z,63.33
2018-12-12T00:38:41.599Z,65.83
2018-12-12T00:41:10.164Z,65.45
2018-12-12T00:43:38.691Z,63.60
2018-12-12T00:46:07.250Z,64.72
2018-12-12T00:48:35.784Z,64.72
2018-12-12T00:51:04.358Z,62.07
2018-12-12T00:53:32.914Z,62.83
2018-12-12T00:56:01.479Z,63.55
2018-12-12T00:58:30.066Z,61.75
2018-12-12T01:00:58.596Z,61.73
2018-12-12T01:03:27.264Z,62.00
2018-12-12T01:05:55.977Z,62.88
2018-12-12T01:08:24.505Z,57.88
2018-12-12T01:10:59.499Z,55.23
2018-12-12T01:13:28.004Z,58.10
2018-12-12T01:15:56.624Z,59.18
2018-12-12T01:18:25.131Z,57.60
2018-12-12T01:20:54.129Z,60.65
2018-12-12T01:23:22.687Z,57.30
2018-12-12T01:25:51.223Z,60.43
2018-12-12T01:28:19.786Z,60.00
2018-12-12T01:30:48.336Z,57.58
2018-12-12T01:33:16.867Z,59.05
2018-12-12T01:35:45.495Z,57.58
2018-12-12T01:38:14.029Z,59.23
2018-12-12T01:40:42.603Z,59.43
2018-12-12T01:43:11.125Z,58.83
2018-12-12T01:45:39.646Z,60.80
2018-12-12T01:48:08.180Z,62.73
2018-12-12T01:50:36.786Z,66.05
2018-12-12T01:53:05.359Z,66.43
2018-12-12T01:55:34.606Z,70.17
2018-12-12T01:58:03.160Z,70.22
2018-12-12T02:00:31.796Z,70.35
2018-12-12T02:03:00.361Z,72.63
2018-12-12T02:05:28.956Z,71.22
2018-12-12T02:07:57.632Z,74.30
2018-12-12T02:10:26.150Z,72.80
2018-12-12T02:13:05.956Z,72.58
2018-12-12T02:15:34.580Z,68.15
2018-12-12T02:18:03.778Z,70.62
2018-12-12T02:20:32.296Z,73.00
2018-12-12T02:23:00.824Z,66.70
2018-12-12T02:25:29.390Z,67.90
2018-12-12T02:27:57.893Z,67.80
2018-12-12T02:30:26.397Z,67.50
2018-12-12T02:32:54.930Z,68.37
2018-12-12T02:35:23.482Z,68.92
2018-12-12T02:37:51.976Z,67.12
2018-12-12T02:40:21.079Z,68.00
2018-12-12T02:42:49.582Z,69.15
2018-12-12T02:45:18.334Z,63.43
2018-12-12T02:47:46.819Z,62.93
2018-12-12T02:50:15.361Z,62.90
2018-12-12T02:52:43.976Z,60.20
2018-12-12T02:55:12.696Z,61.95
2018-12-12T02:57:41.302Z,62.67
2018-12-12T03:00:10.314Z,65.30
2018-12-12T03:02:38.948Z,62.73
2018-12-12T03:05:07.644Z,60.35
2018-12-12T03:07:36.164Z,64.05
2018-12-12T03:10:05.080Z,62.08
2018-12-12T03:12:33.664Z,59.13
2018-12-12T03:15:02.218Z,62.88
2018-12-12T03:17:30.781Z,61.87
2018-12-12T03:19:59.317Z,57.75
2018-12-12T03:22:27.871Z,54.83
2018-12-12T03:24:56.419Z,56.30
2018-12-12T03:27:24.998Z,52.70
2018-12-12T03:29:53.969Z,51.60
2018-12-12T03:32:22.489Z,51.80
2018-12-12T03:34:51.032Z,51.35
2018-12-12T03:37:19.585Z,52.53
2018-12-12T03:39:48.133Z,51.18
2018-12-12T03:42:16.684Z,52.30
2018-12-12T03:44:45.197Z,53.80
2018-12-12T03:47:13.727Z,56.75
2018-12-12T03:49:42.236Z,53.90
2018-12-12T03:52:10.775Z,50.98
2018-12-12T03:54:39.289Z,52.58
2018-12-12T03:57:07.839Z,51.13
2018-12-12T03:59:36.353Z,51.40
2018-12-12T04:02:04.986Z,50.17
2018-12-12T04:04:33.494Z,54.67
2018-12-12T04:07:02.058Z,56.15
2018-12-12T04:09:30.625Z,51.92
2018-12-12T04:11:59.204Z,52.75
2018-12-12T04:14:27.738Z,53.55
2018-12-12T04:16:56.232Z,54.03
2018-12-12T04:19:24.919Z,53.28
2018-12-12T04:21:53.638Z,54.60
2018-12-12T04:24:24.158Z,52.08
2018-12-12T04:26:52.655Z,51.37
2018-12-12T04:29:21.261Z,44.75
2018-12-12T04:31:49.801Z,52.40
2018-12-12T04:34:18.352Z,49.57
2018-12-12T04:36:46.900Z,56.25
2018-12-12T04:39:15.439Z,77.08
2018-12-12T04:41:44.026Z,85.67
2018-12-12T04:44:12.525Z,72.80
2018-12-12T04:46:41.087Z,51.40
2018-12-12T04:49:09.659Z,49.03
2018-12-12T04:51:38.154Z,55.48
2018-12-12T04:54:06.674Z,56.13
2018-12-12T04:56:35.372Z,48.17
2018-12-12T04:59:04.263Z,53.92
2018-12-12T05:01:32.869Z,46.42
2018-12-12T05:04:01.393Z,47.23
2018-12-12T05:06:29.967Z,46.45
2018-12-12T05:08:58.491Z,47.23
2018-12-12T05:11:27.130Z,48.98
2018-12-12T05:13:55.611Z,47.00
2018-12-12T05:16:24.157Z,48.85
2018-12-12T05:18:52.687Z,46.13
2018-12-12T05:21:21.177Z,42.80
2018-12-12T05:23:49.713Z,39.92
2018-12-12T05:26:18.269Z,40.70
2018-12-12T05:28:46.845Z,42.60
2018-12-12T05:31:15.367Z,43.08
2018-12-12T05:33:44.026Z,39.10
2018-12-12T05:36:12.593Z,39.90
2018-12-12T05:38:41.117Z,38.85
2018-12-12T05:41:09.661Z,40.28
2018-12-12T05:43:38.207Z,40.10
2018-12-12T05:46:07.915Z,38.88
2018-12-12T05:48:36.494Z,39.20
2018-12-12T05:51:05.125Z,41.18
2018-12-12T05:53:33.643Z,40.88
2018-12-12T05:56:02.621Z,42.30
2018-12-12T05:58:31.434Z,47.95
2018-12-12T06:00:59.976Z,49.38
2018-12-12T06:03:28.512Z,45.63
2018-12-12T06:05:57.159Z,41.48
2018-12-12T06:08:25.763Z,42.83
2018-12-12T06:10:55.006Z,43.73
2018-12-12T06:13:23.520Z,45.17
2018-12-12T06:15:52.064Z,44.58
2018-12-12T06:18:20.652Z,45.55
2018-12-12T06:20:49.191Z,45.63
2018-12-12T06:23:17.706Z,48.17
2018-12-12T06:25:46.400Z,44.77
2018-12-12T06:28:14.940Z,44.60
2018-12-12T06:30:43.518Z,42.17
2018-12-12T06:33:12.072Z,41.37
2018-12-12T06:35:40.608Z,43.38
2018-12-12T06:38:09.160Z,45.52
2018-12-12T06:40:37.757Z,47.27
2018-12-12T06:43:06.306Z,46.18
2018-12-12T06:45:34.853Z,47.48
2018-12-12T06:48:03.468Z,43.83
2018-12-12T06:50:32.883Z,44.18
2018-12-12T06:53:01.384Z,44.65
2018-12-12T06:55:29.928Z,46.20
2018-12-12T06:57:58.448Z,49.75
2018-12-12T07:00:28.116Z,56.28
2018-12-12T07:02:56.626Z,51.30
2018-12-12T07:05:25.147Z,47.23
2018-12-12T07:07:53.694Z,42.95
2018-12-12T07:10:22.218Z,40.67
2018-12-12T07:12:50.725Z,43.17
2018-12-12T07:15:19.230Z,42.53
2018-12-12T07:17:47.845Z,41.10
2018-12-12T07:20:16.478Z,87.60
2018-12-12T07:22:45.036Z,41.42
2018-12-12T07:25:13.622Z,41.63
2018-12-12T07:27:42.194Z,42.33
2018-12-12T07:30:10.853Z,45.03
2018-12-12T07:32:39.485Z,45.65
2018-12-12T07:35:08.149Z,48.45
2018-12-12T07:37:36.672Z,48.63
2018-12-12T07:40:05.314Z,45.73
2018-12-12T07:42:33.936Z,46.13
2018-12-12T07:45:02.550Z,42.60
2018-12-12T07:47:31.119Z,37.15
2018-12-12T07:49:59.631Z,36.73
2018-12-12T07:52:28.175Z,40.17
2018-12-12T07:54:56.983Z,42.88
2018-12-12T07:57:25.546Z,40.73
2018-12-12T07:59:54.098Z,41.83
2018-12-12T08:02:23.128Z,42.10
2018-12-12T08:04:58.066Z,42.08
2018-12-12T08:07:26.679Z,43.05
2018-12-12T08:09:55.236Z,50.60
2018-12-12T08:12:23.737Z,50.38
2018-12-12T08:14:52.268Z,40.75
2018-12-12T08:17:20.762Z,43.52
2018-12-12T08:19:49.339Z,41.95
2018-12-12T08:22:17.921Z,41.68
2018-12-12T08:24:46.586Z,41.28
2018-12-12T08:27:15.107Z,38.33
2018-12-12T08:29:43.673Z,39.00
2018-12-12T08:32:12.234Z,38.80
2018-12-12T08:34:40.781Z,38.37
2018-12-12T08:37:09.377Z,37.25
2018-12-12T08:39:37.908Z,40.70
2018-12-12T08:42:06.487Z,39.53
2018-12-12T08:44:35.034Z,38.47
2018-12-12T08:47:03.757Z,37.00
2018-12-12T08:49:32.338Z,36.05
2018-12-12T08:52:00.897Z,36.58
2018-12-12T08:54:29.456Z,36.50
2018-12-12T08:56:58.398Z,35.43
2018-12-12T08:59:26.966Z,41.70
2018-12-12T09:01:55.568Z,40.28
2018-12-12T09:04:24.176Z,38.40
2018-12-12T09:06:52.722Z,37.20
2018-12-12T09:09:21.250Z,38.17
2018-12-12T09:11:49.804Z,40.75
2018-12-12T09:14:18.311Z,40.83
2018-12-12T09:16:46.771Z,40.52
2018-12-12T09:19:15.342Z,41.60
2018-12-12T09:21:43.859Z,39.25
2018-12-12T09:24:12.336Z,39.30
2018-12-12T09:26:40.894Z,34.27
2018-12-12T09:29:09.543Z,36.93
2018-12-12T09:31:38.047Z,34.43
2018-12-12T09:34:06.604Z,35.92
2018-12-12T09:36:35.103Z,34.18
2018-12-12T09:39:05.304Z,34.13
2018-12-12T09:41:33.824Z,31.97
2018-12-12T09:44:02.595Z,34.53
2018-12-12T09:46:31.104Z,34.95
2018-12-12T09:48:59.637Z,34.55
2018-12-12T09:51:28.185Z,35.13
2018-12-12T09:53:56.848Z,34.65
2018-12-12T09:56:25.404Z,33.88
2018-12-12T09:58:53.990Z,32.50
2018-12-12T10:01:23.089Z,32.38
2018-12-12T10:03:51.654Z,32.00
2018-12-12T10:06:20.234Z,35.73
2018-12-12T10:08:48.790Z,39.03
2018-12-12T10:11:17.311Z,35.75
2018-12-12T10:13:45.859Z,49.45
2018-12-12T10:16:14.364Z,33.25
2018-12-12T10:18:42.886Z,34.40
2018-12-12T10:21:11.434Z,32.60
2018-12-12T10:23:39.950Z,32.88
2018-12-12T10:26:08.500Z,34.13
2018-12-12T10:28:37.078Z,32.10
2018-12-12T10:31:05.641Z,33.20
2018-12-12T10:33:37.553Z,33.50
2018-12-12T10:36:04.728Z,32.40
2018-12-12T10:38:33.384Z,32.78
2018-12-12T10:41:02.190Z,34.03
2018-12-12T10:43:30.697Z,35.90
2018-12-12T10:45:59.252Z,34.67
2018-12-12T10:48:27.801Z,35.17
2018-12-12T10:50:56.354Z,33.65
2018-12-12T10:53:24.892Z,34.38
2018-12-12T10:55:53.524Z,32.95
2018-12-12T10:58:22.024Z,36.42
2018-12-12T11:00:56.109Z,36.05
2018-12-12T11:03:29.883Z,31.00
2018-12-12T11:05:58.550Z,31.07
2018-12-12T11:08:27.546Z,29.72
2018-12-12T11:10:56.610Z,28.80
2018-12-12T11:13:25.362Z,31.02
2018-12-12T11:15:54.023Z,30.62
2018-12-12T11:18:23.405Z,31.05
2018-12-12T11:20:51.975Z,30.80
2018-12-12T11:23:20.655Z,29.67
2018-12-12T11:25:49.361Z,25.85
2018-12-12T11:28:18.547Z,27.93
2018-12-12T11:30:47.070Z,27.77
2018-12-12T11:33:15.643Z,29.75
2018-12-12T11:35:44.210Z,31.23
2018-12-12T11:38:12.815Z,35.23
2018-12-12T11:40:41.337Z,31.48
2018-12-12T11:43:09.894Z,32.47
2018-12-12T11:45:38.428Z,32.70
2018-12-12T11:48:07.035Z,31.95
2018-12-12T11:50:35.647Z,32.05
2018-12-12T11:53:04.191Z,33.67
2018-12-12T11:55:33.667Z,37.53
2018-12-12T11:58:02.323Z,41.68
2018-12-12T12:00:30.891Z,39.88
2018-12-12T12:02:59.433Z,33.60
2018-12-12T12:05:28.001Z,33.80
2018-12-12T12:07:56.555Z,34.35
2018-12-12T12:10:25.597Z,33.53
2018-12-12T12:12:54.162Z,33.25
2018-12-12T12:15:22.908Z,32.48
2018-12-12T12:17:51.439Z,31.17
2018-12-12T12:20:20.077Z,26.33
2018-12-12T12:22:48.629Z,25.57
2018-12-12T12:25:17.143Z,24.65
2018-12-12T12:27:45.712Z,24.63
2018-12-12T12:30:14.231Z,24.52
2018-12-12T12:32:42.751Z,25.43
2018-12-12T12:35:11.309Z,23.83
2018-12-12T12:37:39.831Z,25.08
2018-12-12T12:40:08.486Z,29.40
2018-12-12T12:42:37.019Z,32.83
2018-12-12T12:45:06.313Z,30.00
2018-12-12T12:47:34.860Z,29.53
2018-12-12T12:50:03.503Z,26.70
2018-12-12T12:52:32.030Z,22.27
2018-12-12T12:55:00.574Z,20.25
2018-12-12T12:57:29.144Z,20.57
2018-12-12T12:59:57.653Z,19.35
2018-12-12T13:02:26.965Z,20.92
2018-12-12T13:04:55.693Z,21.80
2018-12-12T13:07:24.260Z,21.77
2018-12-12T13:09:53.309Z,28.87
2018-12-12T13:12:21.783Z,20.43
2018-12-12T13:14:50.307Z,19.73
2018-12-12T13:17:18.802Z,18.98
2018-12-12T13:19:47.321Z,21.05
2018-12-12T13:22:15.853Z,21.55
2018-12-12T13:24:44.351Z,22.73
2018-12-12T13:27:12.955Z,25.12
2018-12-12T13:29:41.518Z,25.00
2018-12-12T13:32:10.084Z,34.13
2018-12-12T13:34:38.701Z,35.43
2018-12-12T13:37:07.240Z,23.95
2018-12-12T13:39:35.845Z,19.85
2018-12-12T13:42:04.453Z,20.60
2018-12-12T13:44:33.023Z,21.07
2018-12-12T13:47:01.705Z,23.25
2018-12-12T13:49:30.289Z,33.20
2018-12-12T13:51:58.847Z,25.00
2018-12-12T13:54:27.371Z,114.70
2018-12-12T13:56:55.955Z,100.30
2018-12-12T13:59:24.480Z,51.37
2018-12-12T14:01:53.139Z,81.45
2018-12-12T14:04:22.902Z,73.10
2018-12-12T14:06:51.690Z,60.48
2018-12-12T14:09:20.247Z,44.67
2018-12-12T14:11:48.775Z,24.40
2018-12-12T14:14:17.352Z,22.02
2018-12-12T14:16:45.927Z,20.67
2018-12-12T14:19:14.506Z,30.10
2018-12-12T14:21:43.102Z,41.77
2018-12-12T14:24:11.629Z,32.50
2018-12-12T14:26:40.140Z,29.20
2018-12-12T14:29:08.720Z,28.07
2018-12-12T14:31:37.330Z,55.00
2018-12-12T14:34:05.846Z,30.15
2018-12-12T14:36:34.401Z,31.75
2018-12-12T14:39:03.863Z,27.53
2018-12-12T14:41:32.460Z,28.65
2018-12-12T14:44:01.103Z,26.57
2018-12-12T14:46:29.718Z,27.80
2018-12-12T14:48:58.448Z,32.98
2018-12-12T14:51:27.043Z,32.70
2018-12-12T14:53:55.602Z,27.47
2018-12-12T14:56:24.780Z,29.37
2018-12-12T14:58:56.957Z,36.88
2018-12-12T15:01:25.926Z,31.75
2018-12-12T15:03:54.652Z,30.47
2018-12-12T15:06:23.222Z,33.05
2018-12-12T15:08:51.824Z,33.90
2018-12-12T15:11:20.451Z,34.73
2018-12-12T15:13:54.798Z,35.08
2018-12-12T15:16:23.504Z,37.40
2018-12-12T15:18:52.034Z,35.33
2018-12-12T15:21:26.065Z,32.80
2018-12-12T15:24:06.069Z,34.27
2018-12-12T15:26:38.490Z,34.83
2018-12-12T15:29:08.790Z,36.60
2018-12-12T15:31:39.243Z,37.78
2018-12-12T15:34:07.778Z,37.30
2018-12-12T15:36:42.013Z,37.28
2018-12-12T15:39:11.488Z,41.87
2018-12-12T15:41:49.856Z,40.25
2018-12-12T15:44:24.341Z,39.50
2018-12-12T15:46:55.978Z,36.48
2018-12-12T15:49:25.472Z,36.73
2018-12-12T15:51:54.359Z,36.85
2018-12-12T15:54:22.957Z,34.75
2018-12-12T15:56:55.405Z,36.48
2018-12-12T15:59:23.960Z,34.80
2018-12-12T16:01:52.449Z,34.83
2018-12-12T16:04:30.969Z,34.60
2018-12-12T16:07:04.074Z,36.55
2018-12-12T16:09:33.563Z,37.20
2018-12-12T16:12:05.393Z,37.60
2018-12-12T16:14:37.695Z,47.43
2018-12-12T16:17:07.876Z,37.13
2018-12-12T16:19:38.673Z,37.50
2018-12-12T16:22:07.293Z,36.53
2018-12-12T16:24:35.830Z,36.25
2018-12-12T16:27:06.976Z,35.17
2018-12-12T16:29:38.331Z,35.33
2018-12-12T16:32:09.890Z,39.58
2018-12-12T16:34:46.157Z,40.08
2018-12-12T16:37:15.640Z,39.08
2018-12-12T16:39:48.748Z,45.83
2018-12-12T16:42:20.396Z,45.05
2018-12-12T16:44:53.582Z,37.10
2018-12-12T16:47:22.260Z,34.70
2018-12-12T16:49:50.817Z,36.38
2018-12-12T16:52:22.304Z,33.20
2018-12-12T16:55:07.052Z,35.20
2018-12-12T16:57:45.462Z,37.48
2018-12-12T17:00:19.403Z,37.17
2018-12-12T17:02:50.937Z,32.55
2018-12-12T17:05:21.984Z,31.45
2018-12-12T17:07:58.662Z,30.70
2018-12-12T17:10:29.758Z,30.35
2018-12-12T17:12:58.547Z,25.88
2018-12-12T17:15:35.802Z,26.42
2018-12-12T17:18:11.970Z,28.57
2018-12-12T17:20:45.368Z,22.55
2018-12-12T17:23:14.196Z,21.90
2018-12-12T17:25:42.795Z,21.62
2018-12-12T17:28:11.320Z,21.00
2018-12-12T17:30:39.878Z,23.60
2018-12-12T17:33:08.489Z,24.27
2018-12-12T17:35:37.095Z,28.12
2018-12-12T17:38:05.755Z,30.08
2018-12-12T17:40:34.297Z,34.58
2018-12-12T17:43:02.882Z,35.03
2018-12-12T17:45:31.404Z,29.42
2018-12-12T17:48:00.049Z,27.73
2018-12-12T17:50:28.914Z,24.92
2018-12-12T17:52:57.457Z,26.35
2018-12-12T17:55:26.028Z,27.55
2018-12-12T17:57:54.616Z,26.12
2018-12-12T18:00:23.214Z,25.90
2018-12-12T18:02:51.809Z,29.53
2018-12-12T18:05:20.419Z,30.30
2018-12-12T18:07:49.019Z,33.38
2018-12-12T18:10:18.180Z,30.48
2018-12-12T18:12:46.707Z,28.75
2018-12-12T18:15:15.357Z,30.27
2018-12-12T18:17:44.002Z,27.52
2018-12-12T18:20:12.679Z,27.10
2018-12-12T18:22:41.372Z,28.15
2018-12-12T18:25:10.019Z,37.48
2018-12-12T18:27:38.609Z,51.73
2018-12-12T18:30:08.293Z,36.90
2018-12-12T18:32:36.936Z,23.87
2018-12-12T18:35:05.852Z,21.93
2018-12-12T18:37:34.502Z,22.85
2018-12-12T18:40:03.256Z,22.52
2018-12-12T18:42:31.738Z,25.35
2018-12-12T18:45:00.285Z,26.07
2018-12-12T18:47:28.923Z,24.75
2018-12-12T18:49:57.461Z,24.57
2018-12-12T18:52:26.003Z,28.30
2018-12-12T18:54:55.474Z,29.75
2018-12-12T18:57:24.079Z,27.42
2018-12-12T18:59:53.663Z,34.23
2018-12-12T19:02:22.320Z,34.43
2018-12-12T19:04:50.956Z,42.48
2018-12-12T19:07:20.253Z,32.30
2018-12-12T19:09:49.083Z,33.10
2018-12-12T19:12:17.955Z,23.87
2018-12-12T19:14:51.907Z,47.73
2018-12-12T19:17:20.502Z,40.95
2018-12-12T19:19:49.225Z,36.75
2018-12-12T19:22:18.125Z,37.35
2018-12-12T19:24:46.880Z,34.48
2018-12-12T19:27:15.791Z,32.90
2018-12-12T19:32:37.423Z,31.85
2018-12-12T19:35:08.337Z,34.13
2018-12-12T19:37:38.051Z,29.35
2018-12-12T19:40:07.892Z,37.83
2018-12-12T19:42:36.509Z,37.08
2018-12-12T19:45:06.327Z,37.42
2018-12-12T19:47:35.092Z,59.25
2018-12-12T19:50:03.777Z,38.10
2018-12-12T19:52:33.125Z,41.02
2018-12-12T19:55:01.730Z,36.65
2018-12-12T19:57:30.386Z,34.73
2018-12-12T19:59:59.174Z,34.83
2018-12-12T20:02:27.781Z,36.10
2018-12-12T20:04:56.786Z,36.10
2018-12-12T20:07:26.111Z,39.73
2018-12-12T20:09:54.975Z,35.85
2018-12-12T20:12:24.096Z,35.55
2018-12-12T20:14:55.631Z,39.63
2018-12-12T20:17:24.181Z,35.13
2018-12-12T20:19:53.140Z,35.20
2018-12-12T20:22:22.696Z,30.85
2018-12-12T20:24:51.329Z,33.98
2018-12-12T20:27:19.828Z,34.45
2018-12-12T20:29:48.428Z,34.17
2018-12-12T20:32:16.963Z,37.55
2018-12-12T20:34:45.525Z,32.03
2018-12-12T20:37:14.105Z,52.25
2018-12-12T20:39:42.733Z,34.20
2018-12-12T20:42:11.370Z,28.10
2018-12-12T20:44:39.945Z,29.33
2018-12-12T20:47:08.627Z,28.75
2018-12-12T20:49:38.140Z,29.90
2018-12-12T20:52:13.387Z,28.95
2018-12-12T20:54:42.041Z,31.40
2018-12-12T20:57:10.718Z,32.95
2018-12-12T20:59:39.253Z,30.48
2018-12-12T21:02:07.811Z,34.33
2018-12-12T21:04:36.546Z,35.40
2018-12-12T21:07:05.109Z,34.50
2018-12-12T21:09:33.639Z,31.45
2018-12-12T21:12:02.215Z,31.50
2018-12-12T21:14:30.782Z,28.95
2018-12-12T21:16:59.383Z,27.98
2018-12-12T21:19:27.914Z,40.77
2018-12-12T21:21:56.427Z,35.85
2018-12-12T21:24:25.414Z,32.75
2018-12-12T21:26:54.197Z,35.83
2018-12-12T21:29:23.039Z,30.23
2018-12-12T21:31:51.563Z,31.05
2018-12-12T21:34:20.140Z,30.85
2018-12-12T21:36:48.657Z,30.35
2018-12-12T21:39:17.252Z,32.03
2018-12-12T21:41:45.851Z,31.15
2018-12-12T21:44:14.405Z,32.85
2018-12-12T21:46:42.995Z,33.78
2018-12-12T21:49:11.681Z,32.08
2018-12-12T21:51:40.243Z,32.93
2018-12-12T21:54:08.769Z,31.45
2018-12-12T21:56:37.342Z,28.87
2018-12-12T21:59:06.441Z,33.05
2018-12-12T22:01:34.934Z,32.15
2018-12-12T22:04:03.571Z,30.62
2018-12-12T22:06:32.107Z,30.37
2018-12-12T22:09:00.761Z,31.55
2018-12-12T22:11:29.261Z,31.07
2018-12-12T22:13:57.759Z,26.95
2018-12-12T22:16:26.902Z,25.12
2018-12-12T22:18:56.123Z,27.48
2018-12-12T22:21:24.655Z,26.93
2018-12-12T22:23:53.217Z,28.67
2018-12-12T22:26:21.726Z,30.10
2018-12-12T22:28:50.269Z,27.82
2018-12-12T22:31:18.861Z,32.17
2018-12-12T22:33:47.392Z,33.13
2018-12-12T22:36:15.923Z,27.35
2018-12-12T22:38:44.530Z,29.20
2018-12-12T22:41:13.261Z,29.07
2018-12-12T22:43:41.849Z,29.15
2018-12-12T22:46:10.417Z,29.10
2018-12-12T22:48:39.002Z,27.87
2018-12-12T22:51:07.540Z,25.12
2018-12-12T22:53:36.042Z,24.87
2018-12-12T22:56:04.673Z,24.95
2018-12-12T22:58:33.221Z,24.97
2018-12-12T23:01:07.098Z,28.52
2018-12-12T23:03:36.110Z,28.05
2018-12-12T23:06:05.356Z,27.80
2018-12-12T23:08:33.919Z,29.00
2018-12-12T23:11:02.417Z,26.23
2018-12-12T23:13:30.958Z,27.63
2018-12-12T23:15:59.484Z,26.55
2018-12-12T23:18:28.028Z,26.12
2018-12-12T23:20:56.539Z,27.98
2018-12-12T23:23:25.066Z,26.73
2018-12-12T23:25:53.631Z,41.77
2018-12-12T23:28:22.124Z,52.70
2018-12-12T23:30:50.619Z,36.15
2018-12-12T23:33:19.265Z,28.30
2018-12-12T23:35:47.783Z,25.82
2018-12-12T23:38:16.245Z,24.40
2018-12-12T23:40:44.839Z,24.25
2018-12-12T23:43:13.339Z,22.63
2018-12-12T23:45:41.834Z,19.62
2018-12-12T23:48:10.310Z,19.85
2018-12-12T23:50:38.788Z,20.08
2018-12-12T23:53:07.284Z,20.45
2018-12-12T23:55:35.804Z,20.60
2018-12-12T23:58:04.425Z,21.17
